Time;durP1;ratioP1;P1;durP2;ratioP2;P2;SDS_P1;SDS_P2;PMS_P1;PMS_P2;Temp;Humidity;BMP_temperature;BMP_pressure;BME280_temperature;BME280_humidity;BME280_pressure;Samples;Min_cycle;Max_cycle;Signal;HPM_P1;HPM_P2
2022/02/10 00:19:00;;;;;;;25.75;15.48;;;10.20;88.20;;;;;;9177360;19;20026;-67
2022/02/10 00:22:13;;;;;;;26.35;15.27;;;10.10;88.20;;;;;;9180975;19;20014;-67
2022/02/10 00:35:22;;;;;;;24.73;16.40;;;10.20;88.20;;;;;;9179182;19;20491;-67
2022/02/10 00:38:32;;;;;;;23.52;15.98;;;10.10;88.20;;;;;;9179058;19;20338;-67
2022/02/10 00:41:37;;;;;;;25.13;15.85;;;10.20;88.20;;;;;;9179349;19;20030;-67
2022/02/10 00:44:42;;;;;;;25.73;16.92;;;10.10;88.20;;;;;;9177898;19;20019;-68
2022/02/10 00:47:53;;;;;;;23.80;16.30;;;10.20;88.30;;;;;;9177094;19;20014;-67
2022/02/10 00:51:01;;;;;;;28.90;17.75;;;10.20;88.30;;;;;;9177436;19;20014;-68
2022/02/10 00:54:06;;;;;;;26.50;16.58;;;10.10;88.20;;;;;;9179388;19;20047;-67
2022/02/10 00:57:13;;;;;;;26.08;17.17;;;10.20;88.30;;;;;;9180061;19;20071;-70
2022/02/10 01:02:08;;;;;;;25.67;18.05;;;10.20;88.30;;;;;;9176990;19;20483;-67
2022/02/10 01:10:26;;;;;;;27.70;17.48;;;10.10;88.20;;;;;;9175448;19;20019;-67
2022/02/10 01:10:50;;;;;;;29.55;18.88;;;10.10;88.20;;;;;;9176416;19;20475;-67
2022/02/10 01:14:01;;;;;;;27.65;18.70;;;10.10;88.20;;;;;;9178616;19;20578;-67
2022/02/10 01:30:25;;;;;;;31.52;20.92;;;10.10;88.30;;;;;;9177072;19;20018;-67
2022/02/10 01:33:32;;;;;;;35.13;22.08;;;10.10;88.30;;;;;;9177048;19;20388;-68
2022/02/10 01:36:37;;;;;;;31.20;20.70;;;10.10;88.30;;;;;;9176070;19;20018;-68
2022/02/10 01:39:50;;;;;;;33.70;20.42;;;10.10;88.20;;;;;;9178481;19;20010;-68
2022/02/10 02:06:09;;;;;;;36.05;23.15;;;10.00;88.20;;;;;;9173638;19;20025;-67
2022/02/10 02:09:16;;;;;;;39.58;23.58;;;10.00;88.20;;;;;;9173649;19;20021;-67
2022/02/10 02:12:24;;;;;;;33.80;21.23;;;10.00;88.30;;;;;;9177773;19;20017;-67
2022/02/10 02:15:29;;;;;;;34.42;22.05;;;10.00;88.30;;;;;;9175640;19;20095;-66
2022/02/10 02:18:35;;;;;;;41.17;23.60;;;10.00;88.30;;;;;;9170074;19;20476;-69
2022/02/10 02:21:41;;;;;;;39.17;23.05;;;10.00;88.90;;;;;;9172415;19;20018;-67
2022/02/10 02:24:49;;;;;;;35.42;21.90;;;10.00;88.30;;;;;;9173749;19;20061;-67
2022/02/10 02:27:57;;;;;;;33.72;21.05;;;10.00;88.40;;;;;;9174661;19;20472;-67
2022/02/10 02:31:06;;;;;;;40.05;22.52;;;10.00;88.30;;;;;;9176532;19;20026;-67
2022/02/10 02:37:54;;;;;;;37.53;22.98;;;10.00;88.30;;;;;;9182163;19;20014;-70
2022/02/10 03:04:57;;;;;;;32.83;20.60;;;9.90;88.40;;;;;;9183322;19;20042;-67
2022/02/10 03:08:12;;;;;;;33.95;21.35;;;9.90;88.30;;;;;;9181024;19;20014;-67
2022/02/10 03:11:17;;;;;;;32.63;21.15;;;9.90;88.40;;;;;;9183239;19;20025;-66
2022/02/10 03:14:29;;;;;;;33.15;20.77;;;9.90;88.40;;;;;;9178540;19;20018;-67
2022/02/10 03:17:46;;;;;;;33.20;20.48;;;9.90;88.40;;;;;;9176680;19;20584;-67
2022/02/10 03:21:08;;;;;;;32.00;20.23;;;9.90;88.40;;;;;;9181140;19;20029;-67
2022/02/10 04:08:04;;;;;;;25.50;15.75;;;9.80;88.30;;;;;;9176750;19;20018;-67
2022/02/10 04:11:31;;;;;;;24.65;16.00;;;9.80;88.30;;;;;;9181782;19;20014;-67
2022/02/10 04:14:43;;;;;;;20.50;13.65;;;9.80;88.40;;;;;;9179162;19;20014;-67
2022/02/10 04:28:07;;;;;;;21.50;12.13;;;9.80;88.30;;;;;;9176550;19;20015;-67
2022/02/10 04:55:27;;;;;;;15.68;10.90;;;9.70;88.20;;;;;;9174702;19;20030;-67
2022/02/10 04:58:47;;;;;;;16.02;10.93;;;9.70;88.20;;;;;;9177668;19;20806;-67
2022/02/10 05:02:10;;;;;;;16.38;11.23;;;9.70;88.20;;;;;;9178059;19;20026;-67
2022/02/10 05:05:54;;;;;;;20.58;10.93;;;9.70;88.20;;;;;;9176585;19;20019;-67
2022/02/10 05:16:02;;;;;;;16.25;10.98;;;9.70;88.30;;;;;;9177396;19;20019;-67
2022/02/10 05:19:26;;;;;;;15.75;10.15;;;9.70;88.20;;;;;;9172945;19;20014;-67
2022/02/10 05:22:46;;;;;;;15.23;11.07;;;9.70;88.20;;;;;;9175380;19;20018;-67
2022/02/10 05:33:06;;;;;;;;;;;9.70;88.20;;;;;;9174355;19;20024;-67
2022/02/10 05:36:14;;;;;;;17.13;10.82;;;9.70;88.20;;;;;;9179188;19;19915;-67
2022/02/10 05:39:23;;;;;;;14.77;10.73;;;9.70;88.20;;;;;;9177458;19;20017;-68
2022/02/10 05:42:56;;;;;;;16.42;10.30;;;9.70;88.30;;;;;;9174335;19;20370;-67
2022/02/10 05:46:13;;;;;;;15.80;10.10;;;9.60;88.20;;;;;;9173784;19;20014;-67
2022/02/10 05:49:48;;;;;;;21.75;11.10;;;9.70;88.20;;;;;;9174706;19;20507;-67
2022/02/10 05:56:18;;;;;;;15.93;11.00;;;9.70;88.20;;;;;;9174360;19;20408;-67
2022/02/10 05:59:53;;;;;;;19.60;11.70;;;9.70;88.20;;;;;;9178130;19;20022;-67
2022/02/10 06:53:22;;;;;;;3.00;1.50;;;9.50;88.10;;;;;;9180985;19;20011;-63
2022/02/10 07:06:51;;;;;;;1.95;1.25;;;9.40;88.10;;;;;;9182468;19;20034;-63
2022/02/10 07:13:42;;;;;;;3.80;1.13;;;9.30;88.10;;;;;;9181485;19;20047;-64
2022/02/10 08:50:37;;;;;;;7.80;2.78;;;8.70;88.20;;;;;;9178510;19;20358;-64
2022/02/10 08:54:34;;;;;;;15.90;8.38;;;8.70;88.20;;;;;;9176254;19;20026;-63
2022/02/10 08:57:38;;;;;;;9.10;4.30;;;8.70;88.20;;;;;;9177304;19;20010;-64
2022/02/10 09:07:46;;;;;;;10.32;2.40;;;8.60;88.20;;;;;;9175602;19;20018;-64
2022/02/10 09:14:39;;;;;;;10.10;2.22;;;8.70;88.20;;;;;;9181491;19;20037;-67
2022/02/10 10:01:26;;;;;;;13.90;2.40;;;8.80;88.50;;;;;;9172498;19;20634;-65
2022/02/10 10:04:37;;;;;;;7.32;2.30;;;8.80;88.50;;;;;;9174216;19;20019;-65
2022/02/10 10:08:10;;;;;;;9.98;2.55;;;8.90;88.50;;;;;;9171635;19;20023;-64
2022/02/10 10:14:55;;;;;;;9.50;2.40;;;8.90;88.50;;;;;;9161739;19;20074;-66
2022/02/10 10:21:35;;;;;;;6.82;2.33;;;9.00;88.60;;;;;;9168982;19;20050;-66
2022/02/10 10:44:16;;;;;;;10.48;2.15;;;9.10;88.60;;;;;;9171784;19;20399;-66
2022/02/10 10:45:28;;;;;;;13.85;2.67;;;9.50;88.60;;;;;;9168678;19;20022;-65
2022/02/10 10:51:55;;;;;;;6.45;1.90;;;9.60;88.40;;;;;;9169429;19;19930;-65
2022/02/10 10:58:32;;;;;;;5.65;1.83;;;9.70;88.20;;;;;;9174535;19;20026;-65
2022/02/10 11:36:30;;;;;;;5.43;1.70;;;10.20;87.60;;;;;;9175897;19;20491;-66
2022/02/10 11:39:52;;;;;;;10.45;2.05;;;10.30;88.30;;;;;;9178119;19;20018;-65
2022/02/10 11:43:13;;;;;;;10.80;2.22;;;10.40;87.50;;;;;;9179934;19;21114;-67
2022/02/10 11:46:58;;;;;;;7.28;1.45;;;10.40;87.40;;;;;;9176655;19;20033;-67
2022/02/10 14:09:15;;;;;;;7.25;1.65;;;10.30;84.00;;;;;;9168226;19;20030;-67
2022/02/10 14:19:18;;;;;;;5.50;1.53;;;10.20;83.80;;;;;;9169834;19;20018;-68
2022/02/10 14:22:38;;;;;;;6.90;1.45;;;10.20;83.80;;;;;;9178201;19;20037;-65
2022/02/10 14:25:48;;;;;;;6.38;1.25;;;10.20;83.70;;;;;;9174982;19;20014;-66
2022/02/10 14:28:55;;;;;;;7.55;1.42;;;10.20;83.60;;;;;;9178067;19;20853;-65
2022/02/10 14:32:01;;;;;;;3.28;1.05;;;10.20;83.40;;;;;;9170429;19;20033;-66
2022/02/10 14:35:13;;;;;;;9.00;1.60;;;10.10;83.40;;;;;;9182226;19;20015;-66
2022/02/10 14:38:48;;;;;;;8.93;1.60;;;10.10;83.30;;;;;;9184383;19;20022;-66
2022/02/10 14:42:42;;;;;;;12.63;1.40;;;10.10;83.40;;;;;;9183786;19;20330;-68
2022/02/10 15:56:48;;;;;;;13.60;2.15;;;9.60;82.60;;;;;;9182062;19;20014;-65
2022/02/10 16:16:55;;;;;;;7.95;2.10;;;9.40;82.60;;;;;;9176141;19;20015;-65
2022/02/10 16:20:06;;;;;;;10.00;1.50;;;9.40;82.60;;;;;;9176714;19;20044;-65
2022/02/10 16:23:16;;;;;;;10.82;2.13;;;9.40;82.60;;;;;;9175355;19;20078;-66
2022/02/10 16:26:33;;;;;;;16.15;2.10;;;9.30;82.50;;;;;;9171273;19;20468;-66
2022/02/10 16:29:38;;;;;;;13.30;2.30;;;9.30;82.50;;;;;;9172495;19;20412;-66
2022/02/10 16:32:43;;;;;;;7.13;1.98;;;9.30;82.50;;;;;;9172197;19;20032;-64
2022/02/10 16:36:16;;;;;;;7.60;1.63;;;9.30;82.60;;;;;;9174417;19;20653;-66
2022/02/10 16:39:41;;;;;;;10.05;2.22;;;9.20;82.50;;;;;;9175768;19;20112;-67
2022/02/10 16:43:09;;;;;;;6.30;1.60;;;9.20;82.60;;;;;;9173348;19;20475;-65
2022/02/10 16:46:35;;;;;;;13.05;2.33;;;9.20;82.60;;;;;;9175186;19;20014;-64
2022/02/10 16:50:00;;;;;;;12.25;3.20;;;9.20;82.60;;;;;;9176091;19;20095;-65
2022/02/10 16:53:11;;;;;;;10.23;2.20;;;9.20;82.60;;;;;;9178796;19;20030;-64
2022/02/10 16:56:47;;;;;;;12.63;2.53;;;9.10;82.70;;;;;;9178147;19;20028;-64
2022/02/10 17:00:35;;;;;;;7.40;1.85;;;9.10;82.70;;;;;;9178112;19;20031;-66
2022/02/10 17:14:47;;;;;;;17.40;2.75;;;9.00;82.70;;;;;;9176066;19;20025;-67
2022/02/10 17:18:25;;;;;;;12.23;1.80;;;8.90;82.70;;;;;;9168756;19;20011;-65
2022/02/10 17:25:05;;;;;;;11.25;2.60;;;8.90;82.60;;;;;;9173778;19;20030;-64
2022/02/10 17:25:11;;;;;;;10.40;1.85;;;8.90;82.70;;;;;;9169416;19;20014;-65
2022/02/10 17:28:16;;;;;;;7.72;1.85;;;8.80;82.60;;;;;;9168556;19;20025;-64
2022/02/10 17:31:43;;;;;;;15.60;2.45;;;8.80;82.60;;;;;;9171694;19;20030;-65
2022/02/10 17:45:06;;;;;;;10.27;2.50;;;8.70;82.50;;;;;;9171663;19;20023;-66
2022/02/10 17:51:57;;;;;;;8.52;2.45;;;8.60;82.40;;;;;;9171417;19;20353;-65
2022/02/10 17:55:02;;;;;;;20.88;5.22;;;8.60;82.30;;;;;;9169353;19;20587;-65
2022/02/10 17:58:07;;;;;;;12.98;2.47;;;8.50;82.30;;;;;;9173349;19;20388;-65
2022/02/10 18:01:13;;;;;;;15.10;2.53;;;8.50;82.30;;;;;;9169006;19;20067;-66
2022/02/10 18:04:20;;;;;;;11.75;2.00;;;8.50;82.40;;;;;;9179412;19;20014;-66
2022/02/10 18:07:27;;;;;;;11.38;2.15;;;8.50;82.40;;;;;;9178224;19;20018;-64
2022/02/10 18:13:59;;;;;;;11.60;2.95;;;8.40;82.30;;;;;;9178852;19;20045;-64
2022/02/10 18:17:12;;;;;;;12.27;2.03;;;8.40;82.30;;;;;;9178441;19;20823;-65
2022/02/10 18:20:21;;;;;;;10.73;2.00;;;8.40;82.30;;;;;;9179535;19;20019;-65
2022/02/10 18:23:34;;;;;;;8.77;2.00;;;8.30;82.30;;;;;;9175208;19;20024;-65
2022/02/10 18:26:59;;;;;;;10.15;2.92;;;8.30;82.30;;;;;;9176173;19;20022;-64
2022/02/10 18:30:20;;;;;;;16.73;2.40;;;8.30;82.40;;;;;;9176404;19;20018;-67
2022/02/10 19:07:18;;;;;;;12.60;1.70;;;8.00;82.30;;;;;;9179823;19;20025;-64
2022/02/10 19:10:25;;;;;;;9.18;1.85;;;7.90;82.30;;;;;;9174395;19;20014;-64
2022/02/10 19:13:33;;;;;;;13.20;2.30;;;7.90;82.20;;;;;;9171527;19;20022;-64
2022/02/10 19:16:38;;;;;;;9.65;2.03;;;7.90;82.30;;;;;;9174738;19;20669;-65
2022/02/10 19:19:43;;;;;;;8.98;1.70;;;7.80;82.20;;;;;;9172067;19;20377;-65
2022/02/10 19:22:49;;;;;;;11.88;2.63;;;7.80;82.30;;;;;;9177608;19;20014;-65
2022/02/10 19:25:54;;;;;;;11.05;2.83;;;7.80;82.30;;;;;;9172938;19;20018;-64
2022/02/10 19:29:01;;;;;;;9.07;2.13;;;7.80;82.20;;;;;;9176298;19;20361;-64
2022/02/10 19:32:09;;;;;;;6.30;1.88;;;7.80;82.30;;;;;;9173862;19;20018;-65
2022/02/10 19:35:16;;;;;;;8.20;2.38;;;7.80;82.30;;;;;;9176897;19;20768;-65
2022/02/10 19:38:23;;;;;;;12.55;2.15;;;7.70;82.20;;;;;;9176391;19;20399;-65
2022/02/10 19:41:33;;;;;;;11.23;2.90;;;7.70;82.20;;;;;;9175052;19;20022;-66
2022/02/10 19:44:41;;;;;;;10.55;2.38;;;7.70;82.20;;;;;;9172620;19;20025;-65
2022/02/10 19:47:46;;;;;;;17.00;1.88;;;7.70;82.30;;;;;;9173782;19;20003;-65
2022/02/10 19:50:54;;;;;;;10.77;1.75;;;7.60;82.20;;;;;;9177629;19;20041;-66
2022/02/10 19:53:59;;;;;;;13.05;2.13;;;7.60;82.20;;;;;;9171303;19;20031;-66
2022/02/10 19:57:05;;;;;;;12.18;2.08;;;7.60;82.20;;;;;;9173986;19;20022;-64
2022/02/10 20:00:17;;;;;;;9.82;2.33;;;7.50;82.20;;;;;;9172919;19;20015;-65
2022/02/10 20:03:24;;;;;;;14.90;2.67;;;7.60;82.20;;;;;;9173552;19;20015;-64
2022/02/10 20:06:30;;;;;;;13.13;2.83;;;7.50;82.20;;;;;;9173613;19;20015;-64
2022/02/10 20:09:35;;;;;;;14.25;2.42;;;7.50;82.20;;;;;;9173351;19;20023;-64
2022/02/10 20:12:40;;;;;;;6.80;2.70;;;7.50;82.20;;;;;;9173983;19;20026;-64
2022/02/10 20:15:50;;;;;;;8.52;3.08;;;7.50;82.20;;;;;;9171011;19;20025;-65
2022/02/10 20:18:55;;;;;;;12.38;2.67;;;7.50;82.20;;;;;;9169139;19;20061;-64
2022/02/10 20:22:00;;;;;;;8.77;2.55;;;7.40;82.20;;;;;;9175587;19;20019;-64
2022/02/10 20:25:06;;;;;;;12.20;2.75;;;7.40;82.20;;;;;;9171720;19;20025;-64
2022/02/10 20:28:12;;;;;;;11.80;2.42;;;7.40;82.20;;;;;;9172354;19;20022;-63
2022/02/10 20:31:20;;;;;;;7.47;2.35;;;7.40;82.20;;;;;;9171658;19;20014;-65
2022/02/10 20:34:28;;;;;;;10.18;2.85;;;7.40;82.20;;;;;;9173142;19;20075;-65
2022/02/10 20:37:33;;;;;;;14.38;3.35;;;7.30;82.20;;;;;;9173513;19;20029;-65
2022/02/10 20:40:42;;;;;;;12.88;2.53;;;7.30;82.20;;;;;;9174214;19;20055;-65
2022/02/10 20:43:54;;;;;;;16.55;2.70;;;7.30;82.20;;;;;;9170346;19;20025;-65
2022/02/10 20:47:02;;;;;;;12.52;3.53;;;7.30;82.20;;;;;;9170401;19;20015;-65
2022/02/10 20:50:08;;;;;;;10.82;2.70;;;7.30;82.20;;;;;;9172049;19;20026;-65
2022/02/10 20:53:13;;;;;;;14.90;3.13;;;7.30;82.20;;;;;;9172490;19;20018;-64
2022/02/10 20:56:20;;;;;;;11.85;2.70;;;7.20;82.10;;;;;;9175018;19;20097;-63
2022/02/10 20:59:31;;;;;;;9.10;2.53;;;7.20;82.20;;;;;;9170093;19;20034;-65
2022/02/10 21:02:42;;;;;;;10.23;2.67;;;7.20;82.20;;;;;;9171482;19;20034;-65
2022/02/10 21:05:48;;;;;;;11.70;2.72;;;7.20;82.20;;;;;;9169509;19;20025;-66
2022/02/10 21:08:57;;;;;;;20.52;3.75;;;7.20;82.20;;;;;;9172990;19;20013;-65
2022/02/10 21:12:04;;;;;;;12.85;3.20;;;7.20;82.20;;;;;;9172593;19;20022;-65
2022/02/10 21:15:16;;;;;;;15.25;3.38;;;7.10;82.20;;;;;;9171620;19;20022;-65
2022/02/10 21:18:25;;;;;;;11.20;2.75;;;7.10;82.10;;;;;;9166269;19;20011;-64
2022/02/10 21:21:30;;;;;;;14.40;3.03;;;7.10;82.10;;;;;;9172489;19;20044;-64
2022/02/10 21:24:41;;;;;;;10.43;2.10;;;7.10;82.20;;;;;;9173398;19;20018;-67
2022/02/10 21:28:14;;;;;;;9.25;2.83;;;7.00;82.10;;;;;;9173856;19;20022;-64
2022/02/10 21:31:20;;;;;;;13.50;2.83;;;7.00;82.20;;;;;;9171668;19;20498;-64
2022/02/10 21:34:33;;;;;;;14.18;2.80;;;7.00;82.10;;;;;;9176756;19;20014;-63
2022/02/10 21:37:45;;;;;;;20.70;2.42;;;7.00;82.20;;;;;;9173398;19;20018;-64
2022/02/10 21:45:24;;;;;;;11.98;2.53;;;7.00;82.20;;;;;;9174476;19;20019;-65
2022/02/10 21:48:18;;;;;;;11.35;2.78;;;6.90;82.20;;;;;;9177319;19;20044;-64
2022/02/10 21:55:08;;;;;;;14.80;3.60;;;6.80;82.20;;;;;;9173695;19;20019;-64
2022/02/10 22:18:45;;;;;;;25.42;5.25;;;6.70;82.20;;;;;;9170898;19;20019;-63
2022/02/10 22:21:52;;;;;;;10.77;2.75;;;6.70;82.20;;;;;;9175414;19;20015;-64
2022/02/10 22:25:03;;;;;;;10.20;2.45;;;6.70;82.30;;;;;;9170958;19;20014;-64
2022/02/10 22:28:21;;;;;;;12.93;2.33;;;6.60;82.20;;;;;;9169859;19;20078;-64
2022/02/10 22:31:38;;;;;;;8.55;2.22;;;6.60;82.20;;;;;;9172626;19;20048;-65
2022/02/10 22:34:46;;;;;;;14.40;2.30;;;6.60;82.30;;;;;;9173050;19;20019;-64
2022/02/10 22:37:53;;;;;;;13.70;2.63;;;6.60;82.30;;;;;;9176940;19;20038;-64
2022/02/10 22:41:08;;;;;;;6.40;1.65;;;6.50;82.20;;;;;;9176709;19;20014;-64
2022/02/10 22:44:13;;;;;;;9.55;2.70;;;6.50;82.30;;;;;;9172366;19;20018;-64
2022/02/10 22:47:18;;;;;;;16.42;2.67;;;6.50;82.40;;;;;;9173497;19;20366;-64
2022/02/10 22:50:23;;;;;;;14.82;2.42;;;6.50;82.40;;;;;;9181476;19;20033;-64
2022/02/10 22:53:29;;;;;;;12.95;2.25;;;6.50;82.40;;;;;;9183781;19;20399;-64
2022/02/10 22:56:36;;;;;;;9.40;2.05;;;6.50;82.50;;;;;;9185047;19;20051;-64
2022/02/10 22:59:41;;;;;;;12.13;2.47;;;6.50;82.50;;;;;;9178895;19;20019;-64
2022/02/10 23:02:46;;;;;;;8.15;2.15;;;6.50;82.50;;;;;;9181896;19;20029;-64
2022/02/10 23:05:52;;;;;;;10.30;2.50;;;6.50;82.60;;;;;;9184812;19;20019;-65
2022/02/10 23:08:59;;;;;;;12.88;2.17;;;6.50;82.60;;;;;;9185808;19;20361;-65
2022/02/10 23:12:08;;;;;;;12.43;2.47;;;6.40;82.50;;;;;;9182252;19;20018;-63
2022/02/10 23:15:13;;;;;;;8.43;2.08;;;6.40;82.50;;;;;;9181669;19;20015;-64
2022/02/10 23:18:19;;;;;;;10.30;2.08;;;6.40;82.50;;;;;;9178298;19;20338;-63
2022/02/10 23:21:24;;;;;;;9.65;1.92;;;6.40;82.40;;;;;;9184906;19;20345;-66
2022/02/10 23:24:29;;;;;;;14.60;2.03;;;6.40;82.40;;;;;;9185721;19;20025;-64
2022/02/10 23:27:37;;;;;;;10.93;2.40;;;6.30;82.40;;;;;;9180822;19;20326;-63
2022/02/10 23:30:45;;;;;;;8.73;1.90;;;6.30;82.40;;;;;;9182183;19;20011;-63
2022/02/10 23:33:54;;;;;;;10.18;2.28;;;6.30;82.40;;;;;;9182487;19;20499;-63
2022/02/10 23:36:59;;;;;;;14.45;2.08;;;6.30;82.40;;;;;;9183386;19;20018;-66
2022/02/10 23:40:04;;;;;;;12.40;2.35;;;6.20;82.40;;;;;;9185477;19;20018;-64
2022/02/10 23:43:12;;;;;;;15.63;2.78;;;6.20;82.40;;;;;;9180642;19;20007;-64
2022/02/10 23:46:18;;;;;;;5.82;1.70;;;6.20;82.40;;;;;;9179392;19;20474;-66
2022/02/10 23:49:24;;;;;;;14.63;2.20;;;6.10;82.40;;;;;;9181600;19;20022;-64
2022/02/10 23:52:29;;;;;;;14.18;2.38;;;6.10;82.40;;;;;;9181513;19;20014;-64
2022/02/10 23:55:38;;;;;;;14.40;2.40;;;6.10;82.50;;;;;;9182023;19;20026;-64
2022/02/10 23:58:53;;;;;;;8.35;2.50;;;6.00;82.40;;;;;;9180410;19;20463;-64
